createdAt,value
2022-08-18T00:02:03.637Z,25.30
2022-08-18T00:05:07.573Z,25.23
2022-08-18T00:08:12.719Z,25.17
2022-08-18T00:11:16.263Z,25.12
2022-08-18T00:14:22.993Z,25.12
2022-08-18T00:17:25.852Z,25.04
2022-08-18T00:20:28.703Z,25.01
2022-08-18T00:23:32.674Z,24.96
2022-08-18T00:26:37.092Z,24.90
2022-08-18T00:29:41.246Z,24.88
2022-08-18T00:32:46.265Z,24.84
2022-08-18T00:35:48.950Z,24.80
2022-08-18T00:38:52.072Z,24.77
2022-08-18T00:41:55.902Z,24.73
2022-08-18T00:45:02.649Z,24.70
2022-08-18T00:48:06.856Z,24.67
2022-08-18T00:51:18.501Z,24.66
2022-08-18T00:54:25.081Z,24.61
2022-08-18T00:57:28.113Z,24.61
2022-08-18T01:00:33.073Z,24.58
2022-08-18T01:03:40.109Z,24.57
2022-08-18T01:06:48.452Z,24.53
2022-08-18T01:09:52.863Z,24.49
2022-08-18T01:12:57.610Z,24.49
2022-08-18T01:16:23.973Z,24.42
2022-08-18T01:19:46.284Z,24.44
2022-08-18T01:22:59.251Z,24.39
2022-08-18T01:26:04.383Z,24.38
2022-08-18T01:29:11.882Z,24.42
2022-08-18T01:32:24.125Z,24.31
2022-08-18T01:35:28.354Z,24.29
2022-08-18T01:38:40.682Z,24.29
2022-08-18T01:41:43.346Z,24.28
2022-08-18T01:44:51.299Z,24.22
2022-08-18T01:47:54.533Z,24.15
2022-08-18T01:50:57.284Z,24.11
2022-08-18T01:54:01.714Z,24.11
2022-08-18T01:57:05.648Z,24.08
2022-08-18T02:00:10.144Z,24.02
2022-08-18T02:03:16.010Z,23.99
2022-08-18T02:06:32.193Z,23.92
2022-08-18T02:09:40.143Z,23.86
2022-08-18T02:12:43.149Z,23.76
2022-08-18T02:15:45.940Z,23.73
2022-08-18T02:18:49.035Z,23.65
2022-08-18T02:21:53.138Z,23.52
2022-08-18T02:24:58.234Z,23.45
2022-08-18T02:28:00.885Z,23.40
2022-08-18T02:31:06.450Z,23.37
2022-08-18T02:34:09.093Z,23.33
2022-08-18T02:37:15.278Z,23.32
2022-08-18T02:40:20.033Z,23.27
2022-08-18T02:43:22.858Z,23.23
2022-08-18T02:46:29.706Z,23.20
2022-08-18T02:49:33.307Z,23.15
2022-08-18T02:52:36.287Z,23.11
2022-08-18T02:55:41.444Z,23.06
2022-08-18T02:58:44.100Z,23.02
2022-08-18T03:01:51.491Z,23.02
2022-08-18T03:04:54.876Z,22.99
2022-08-18T03:07:57.553Z,22.93
2022-08-18T03:11:01.630Z,22.85
2022-08-18T03:14:05.545Z,22.81
2022-08-18T03:17:10.585Z,22.77
2022-08-18T03:20:14.014Z,22.65
2022-08-18T03:23:16.940Z,22.58
2022-08-18T03:26:22.789Z,22.56
2022-08-18T03:29:31.743Z,22.54
2022-08-18T03:32:34.903Z,22.52
2022-08-18T03:35:38.330Z,22.54
2022-08-18T03:38:43.174Z,22.44
2022-08-18T03:41:58.481Z,22.21
2022-08-18T03:45:13.079Z,22.22
2022-08-18T03:48:20.562Z,22.27
2022-08-18T03:51:26.155Z,22.25
2022-08-18T03:54:29.212Z,22.24
2022-08-18T03:57:34.432Z,22.19
2022-08-18T04:00:42.378Z,22.19
2022-08-18T04:03:45.864Z,22.21
2022-08-18T04:06:51.166Z,22.18
2022-08-18T04:09:53.899Z,22.22
2022-08-18T04:12:57.858Z,22.27
2022-08-18T04:16:00.542Z,22.38
2022-08-18T04:19:05.293Z,22.36
2022-08-18T04:22:07.893Z,22.20
2022-08-18T04:25:10.914Z,22.15
2022-08-18T04:28:14.965Z,22.15
2022-08-18T04:31:18.293Z,22.20
2022-08-18T04:34:22.757Z,22.24
2022-08-18T04:37:25.725Z,22.26
2022-08-18T04:40:29.499Z,22.29
2022-08-18T04:43:33.985Z,22.41
2022-08-18T04:46:40.741Z,22.43
2022-08-18T04:49:43.811Z,22.46
2022-08-18T04:53:04.031Z,22.35
2022-08-18T04:56:07.362Z,22.38
2022-08-18T04:59:13.357Z,22.50
2022-08-18T05:02:18.532Z,22.83
2022-08-18T05:05:21.651Z,22.97
2022-08-18T05:08:24.826Z,22.95
2022-08-18T05:11:30.110Z,23.04
2022-08-18T05:14:36.007Z,23.07
2022-08-18T05:17:39.670Z,23.02
2022-08-18T05:20:43.862Z,23.01
2022-08-18T05:23:50.208Z,23.11
2022-08-18T05:26:55.171Z,23.19
2022-08-18T05:29:59.314Z,23.15
2022-08-18T05:33:03.468Z,23.37
2022-08-18T05:36:13.553Z,23.49
2022-08-18T05:39:23.891Z,23.72
2022-08-18T05:42:29.910Z,23.81
2022-08-18T05:45:34.816Z,23.95
2022-08-18T05:48:43.699Z,24.13
2022-08-18T05:51:49.168Z,24.22
2022-08-18T05:55:25.428Z,24.24
2022-08-18T05:58:38.484Z,24.35
2022-08-18T06:01:47.772Z,24.43
2022-08-18T06:04:56.106Z,24.41
2022-08-18T06:08:01.193Z,24.66
2022-08-18T06:11:03.830Z,24.88
2022-08-18T06:14:06.943Z,24.82
2022-08-18T06:17:29.129Z,25.04
2022-08-18T06:20:44.363Z,25.31
2022-08-18T06:23:56.575Z,25.47
2022-08-18T06:27:11.074Z,25.63
2022-08-18T06:30:18.758Z,25.57
2022-08-18T06:33:40.465Z,25.47
2022-08-18T06:36:53.126Z,25.48
2022-08-18T06:39:57.171Z,25.41
2022-08-18T06:43:02.121Z,25.48
2022-08-18T06:46:10.746Z,25.61
2022-08-18T06:49:22.829Z,25.70
2022-08-18T06:52:30.079Z,25.65
2022-08-18T06:55:35.297Z,25.56
2022-08-18T06:58:37.952Z,25.67
2022-08-18T07:01:41.158Z,25.90
2022-08-18T07:05:01.108Z,25.99
2022-08-18T07:08:30.290Z,26.04
2022-08-18T07:11:34.371Z,26.04
2022-08-18T07:14:45.915Z,26.12
2022-08-18T07:17:50.202Z,26.22
2022-08-18T07:20:57.215Z,26.30
2022-08-18T07:24:23.866Z,26.39
2022-08-18T07:27:42.675Z,26.39
2022-08-18T07:31:06.368Z,26.49
2022-08-18T07:34:14.280Z,26.60
2022-08-18T07:37:26.482Z,26.53
2022-08-18T07:40:39.349Z,26.64
2022-08-18T07:43:54.470Z,26.82
2022-08-18T07:47:01.395Z,26.86
2022-08-18T07:50:27.034Z,26.97
2022-08-18T07:53:44.914Z,27.24
2022-08-18T07:57:19.211Z,27.25
2022-08-18T08:00:54.923Z,27.35
2022-08-18T08:03:59.375Z,27.47
2022-08-18T08:07:24.042Z,27.43
2022-08-18T08:10:37.592Z,27.55
2022-08-18T08:13:56.075Z,27.62
2022-08-18T08:17:08.268Z,27.64
2022-08-18T08:20:19.779Z,27.66
2022-08-18T08:23:29.974Z,27.71
2022-08-18T08:26:48.594Z,27.75
2022-08-18T08:30:01.357Z,27.80
2022-08-18T08:33:10.801Z,27.87
2022-08-18T08:36:19.723Z,27.84
2022-08-18T08:39:28.857Z,27.92
2022-08-18T08:42:41.018Z,28.10
2022-08-18T08:45:49.255Z,27.99
2022-08-18T08:49:00.740Z,28.18
2022-08-18T08:52:11.120Z,28.32
2022-08-18T08:55:19.085Z,28.40
2022-08-18T08:58:29.768Z,28.47
2022-08-18T09:01:39.078Z,28.62
2022-08-18T09:05:08.342Z,28.76
2022-08-18T09:08:28.745Z,28.90
2022-08-18T09:12:06.440Z,29.08
2022-08-18T09:15:28.376Z,29.26
2022-08-18T09:18:43.984Z,29.47
2022-08-18T09:21:53.234Z,29.48
2022-08-18T09:24:56.308Z,29.69
2022-08-18T09:28:11.423Z,30.21
2022-08-18T09:31:20.059Z,30.33
2022-08-18T09:34:41.372Z,30.45
2022-08-18T09:38:12.945Z,30.61
2022-08-18T09:41:34.102Z,30.30
2022-08-18T09:45:08.298Z,30.15
2022-08-18T09:48:31.728Z,30.62
2022-08-18T09:51:40.210Z,31.14
2022-08-18T09:54:52.620Z,30.85
2022-08-18T09:58:17.333Z,31.13
2022-08-18T10:01:40.701Z,31.42
2022-08-18T10:04:51.012Z,32.05
2022-08-18T10:08:21.406Z,31.86
2022-08-18T10:11:40.367Z,31.57
2022-08-18T10:15:32.800Z,31.96
2022-08-18T10:18:53.048Z,32.21
2022-08-18T10:22:07.431Z,33.05
2022-08-18T10:25:22.919Z,33.23
2022-08-18T10:28:54.803Z,33.45
2022-08-18T10:32:24.359Z,33.69
2022-08-18T10:35:59.066Z,32.87
2022-08-18T10:39:06.793Z,32.37
2022-08-18T10:42:19.405Z,32.59
2022-08-18T10:45:27.155Z,32.91
2022-08-18T10:48:33.108Z,33.71
2022-08-18T10:51:59.260Z,33.99
2022-08-18T10:55:48.187Z,34.44
2022-08-18T10:59:04.363Z,34.78
2022-08-18T11:02:20.197Z,34.26
2022-08-18T11:05:26.930Z,35.01
2022-08-18T11:08:43.535Z,35.04
2022-08-18T11:11:55.860Z,35.39
2022-08-18T11:15:22.096Z,35.37
2022-08-18T11:18:42.554Z,34.11
2022-08-18T11:21:51.110Z,34.33
2022-08-18T11:24:54.715Z,34.55
2022-08-18T11:28:00.663Z,35.35
2022-08-18T11:31:06.487Z,34.80
2022-08-18T11:34:18.456Z,34.09
2022-08-18T11:37:48.907Z,33.55
2022-08-18T11:41:11.985Z,34.19
2022-08-18T11:44:21.324Z,35.18
2022-08-18T11:47:27.980Z,35.51
2022-08-18T11:50:33.839Z,36.17
2022-08-18T11:53:42.799Z,35.94
2022-08-18T11:56:47.798Z,35.81
2022-08-18T12:00:00.396Z,36.11
2022-08-18T12:03:04.829Z,35.55
2022-08-18T12:06:19.877Z,36.10
2022-08-18T12:16:32.017Z,36.75
2022-08-18T12:19:35.023Z,36.16
2022-08-18T12:22:39.933Z,35.77
2022-08-18T12:25:43.311Z,35.55
2022-08-18T12:28:46.147Z,35.38
2022-08-18T12:31:52.433Z,35.06
2022-08-18T12:38:21.156Z,35.00
2022-08-18T12:41:24.181Z,35.00
2022-08-18T12:44:27.486Z,34.59
2022-08-18T12:47:32.163Z,34.80
2022-08-18T12:50:41.158Z,34.90
2022-08-18T12:53:59.171Z,34.81
2022-08-18T12:57:04.630Z,35.31
2022-08-18T13:03:35.102Z,35.54
2022-08-18T13:06:50.324Z,35.43
2022-08-18T13:10:03.625Z,35.72
2022-08-18T13:13:06.964Z,35.58
2022-08-18T13:16:16.522Z,35.48
2022-08-18T13:19:36.989Z,35.08
2022-08-18T13:22:41.160Z,35.06
2022-08-18T13:25:44.235Z,35.15
2022-08-18T13:28:56.601Z,35.72
2022-08-18T13:32:00.526Z,36.03
2022-08-18T13:35:09.120Z,35.75
2022-08-18T13:38:22.002Z,35.57
2022-08-18T13:41:28.760Z,35.30
2022-08-18T13:44:35.130Z,35.62
2022-08-18T13:47:38.854Z,35.74
2022-08-18T13:50:42.825Z,35.60
2022-08-18T13:54:17.438Z,35.32
2022-08-18T13:57:11.198Z,34.73
2022-08-18T14:00:18.379Z,34.75
2022-08-18T14:03:42.863Z,34.88
2022-08-18T14:06:56.120Z,35.21
2022-08-18T14:10:03.654Z,35.10
2022-08-18T14:13:11.961Z,35.32
2022-08-18T14:16:26.642Z,35.21
2022-08-18T14:19:47.955Z,35.26
2022-08-18T14:23:12.142Z,35.57
2022-08-18T14:26:32.582Z,35.39
2022-08-18T14:29:45.808Z,35.27
2022-08-18T14:32:50.717Z,34.91
2022-08-18T14:36:06.711Z,34.89
2022-08-18T14:39:13.484Z,34.81
2022-08-18T14:42:18.880Z,34.89
2022-08-18T14:45:31.280Z,35.20
2022-08-18T14:48:37.995Z,35.23
2022-08-18T14:51:45.186Z,35.16
2022-08-18T14:54:51.261Z,34.96
2022-08-18T14:57:54.409Z,35.03
2022-08-18T15:00:58.929Z,35.24
2022-08-18T15:04:18.466Z,34.94
2022-08-18T15:07:23.739Z,34.64
2022-08-18T15:10:28.415Z,34.63
2022-08-18T15:13:32.134Z,34.41
2022-08-18T15:16:38.613Z,34.14
2022-08-18T15:20:00.064Z,33.84
2022-08-18T15:23:24.794Z,33.26
2022-08-18T15:26:32.617Z,32.98
2022-08-18T15:29:37.315Z,32.88
2022-08-18T15:32:45.555Z,32.55
2022-08-18T15:35:50.520Z,32.42
2022-08-18T15:38:53.796Z,32.32
2022-08-18T15:41:58.475Z,32.27
2022-08-18T15:45:11.675Z,32.17
2022-08-18T15:48:17.902Z,32.10
2022-08-18T15:51:20.635Z,32.03
2022-08-18T15:54:23.329Z,32.03
2022-08-18T15:57:39.031Z,31.82
2022-08-18T16:00:48.776Z,31.86
2022-08-18T16:03:55.504Z,31.76
2022-08-18T16:06:58.363Z,31.72
2022-08-18T16:10:02.310Z,31.60
2022-08-18T16:13:06.967Z,31.57
2022-08-18T16:16:12.238Z,31.54
2022-08-18T16:19:15.044Z,31.54
2022-08-18T16:22:17.882Z,31.51
2022-08-18T16:25:21.685Z,31.50
2022-08-18T16:28:34.492Z,31.46
2022-08-18T16:31:37.742Z,31.45
2022-08-18T16:34:41.527Z,31.45
2022-08-18T16:37:44.327Z,31.51
2022-08-18T16:40:47.515Z,31.34
2022-08-18T16:43:51.553Z,31.25
2022-08-18T16:46:54.406Z,31.19
2022-08-18T16:49:58.783Z,30.79
2022-08-18T16:53:01.846Z,30.47
2022-08-18T16:56:04.991Z,30.35
2022-08-18T17:02:57.170Z,30.15
2022-08-18T17:06:01.135Z,30.34
2022-08-18T17:09:10.099Z,29.69
2022-08-18T17:12:12.989Z,29.52
2022-08-18T17:15:17.291Z,29.67
2022-08-18T17:18:20.928Z,29.42
2022-08-18T17:21:27.017Z,28.69
2022-08-18T17:24:31.824Z,28.44
2022-08-18T17:27:37.622Z,28.27
2022-08-18T17:30:47.948Z,28.47
2022-08-18T17:33:50.763Z,28.30
2022-08-18T17:36:56.863Z,28.11
2022-08-18T17:40:04.859Z,27.94
2022-08-18T17:43:12.661Z,27.94
2022-08-18T17:46:27.330Z,27.94
2022-08-18T17:50:26.348Z,27.62
2022-08-18T17:53:18.819Z,27.43
2022-08-18T17:56:35.614Z,27.39
2022-08-18T17:59:52.030Z,27.27
2022-08-18T18:02:56.292Z,26.95
2022-08-18T18:06:04.128Z,26.90
2022-08-18T18:09:09.711Z,27.03
2022-08-18T18:12:23.671Z,26.73
2022-08-18T18:15:33.167Z,26.71
2022-08-18T18:18:42.746Z,26.87
2022-08-18T18:21:53.583Z,26.79
2022-08-18T18:25:06.681Z,26.70
2022-08-18T18:28:26.838Z,26.67
2022-08-18T18:31:32.928Z,26.63
2022-08-18T18:34:39.794Z,26.70
2022-08-18T18:37:52.260Z,26.74
2022-08-18T18:40:58.995Z,26.71
2022-08-18T18:44:09.072Z,26.68
2022-08-18T18:47:23.682Z,26.62
2022-08-18T18:50:36.920Z,26.60
2022-08-18T18:53:49.822Z,26.62
2022-08-18T18:56:56.435Z,26.66
2022-08-18T19:00:11.617Z,26.45
2022-08-18T19:03:21.095Z,26.23
2022-08-18T19:06:32.059Z,26.13
2022-08-18T19:09:42.165Z,26.04
2022-08-18T19:12:53.974Z,25.99
2022-08-18T19:16:01.107Z,25.70
2022-08-18T19:19:38.365Z,25.62
2022-08-18T19:22:41.130Z,25.64
2022-08-18T19:25:47.855Z,25.56
2022-08-18T19:29:12.886Z,25.60
2022-08-18T19:32:21.398Z,25.32
2022-08-18T19:35:35.504Z,25.40
2022-08-18T19:38:45.875Z,25.41
2022-08-18T19:41:56.528Z,25.30
2022-08-18T19:45:16.309Z,25.26
2022-08-18T19:48:30.868Z,25.34
2022-08-18T19:51:35.821Z,25.43
2022-08-18T19:54:55.372Z,25.29
2022-08-18T19:58:22.005Z,25.41
2022-08-18T20:01:36.771Z,25.16
2022-08-18T20:05:04.456Z,25.16
2022-08-18T20:08:30.627Z,25.04
2022-08-18T20:11:48.350Z,25.07
2022-08-18T20:15:02.763Z,25.14
2022-08-18T20:18:20.005Z,24.90
2022-08-18T20:21:39.811Z,24.95
2022-08-18T20:24:50.844Z,24.96
2022-08-18T20:28:32.752Z,25.00
2022-08-18T20:31:51.533Z,25.06
2022-08-18T20:34:54.150Z,25.13
2022-08-18T20:38:14.761Z,25.05
2022-08-18T20:41:43.568Z,25.15
2022-08-18T20:44:58.734Z,25.13
2022-08-18T20:48:14.056Z,25.09
2022-08-18T20:51:25.166Z,24.89
2022-08-18T20:54:39.944Z,24.99
2022-08-18T20:58:05.462Z,25.00
2022-08-18T21:01:13.919Z,24.91
2022-08-18T21:04:16.589Z,24.87
2022-08-18T21:07:34.197Z,24.72
2022-08-18T21:10:48.830Z,24.65
2022-08-18T21:13:53.677Z,24.51
2022-08-18T21:16:58.880Z,24.47
2022-08-18T21:20:06.509Z,24.25
2022-08-18T21:23:12.183Z,24.26
2022-08-18T21:26:17.340Z,24.20
2022-08-18T21:29:20.108Z,24.18
2022-08-18T21:32:29.301Z,24.22
2022-08-18T21:35:35.237Z,24.14
2022-08-18T21:38:37.873Z,24.13
2022-08-18T21:41:42.797Z,24.11
2022-08-18T21:44:47.681Z,24.01
2022-08-18T21:47:56.621Z,24.03
2022-08-18T21:51:02.043Z,24.04
2022-08-18T21:54:05.079Z,23.98
2022-08-18T21:57:23.417Z,24.00
2022-08-18T22:00:28.424Z,23.90
2022-08-18T22:03:33.910Z,23.81
2022-08-18T22:06:40.215Z,23.87
2022-08-18T22:10:16.816Z,23.86
2022-08-18T22:13:39.558Z,23.96
2022-08-18T22:16:42.565Z,23.92
2022-08-18T22:19:46.525Z,23.96
2022-08-18T22:23:07.226Z,23.82
2022-08-18T22:26:13.141Z,23.76
2022-08-18T22:29:26.383Z,23.79
2022-08-18T22:32:29.016Z,23.69
2022-08-18T22:35:33.234Z,23.71
2022-08-18T22:38:36.340Z,23.62
2022-08-18T22:41:39.890Z,23.58
2022-08-18T22:44:43.589Z,23.50
2022-08-18T22:47:46.378Z,23.49
2022-08-18T22:50:51.540Z,23.48
2022-08-18T22:53:55.884Z,23.43
2022-08-18T22:56:59.281Z,23.33
2022-08-18T23:00:03.825Z,23.38
2022-08-18T23:03:06.486Z,23.48
2022-08-18T23:06:11.257Z,23.49
2022-08-18T23:09:13.881Z,23.42
2022-08-18T23:12:16.707Z,23.38
2022-08-18T23:15:19.636Z,23.34
2022-08-18T23:18:24.787Z,23.40
2022-08-18T23:21:34.116Z,23.34
2022-08-18T23:24:38.301Z,23.18
2022-08-18T23:27:41.367Z,23.20
2022-08-18T23:30:44.873Z,23.23
2022-08-18T23:33:47.507Z,23.24
2022-08-18T23:36:56.544Z,23.27
2022-08-18T23:39:59.319Z,23.17
2022-08-18T23:43:02.772Z,23.16
2022-08-18T23:46:06.646Z,23.14
2022-08-18T23:49:10.841Z,23.02
2022-08-18T23:52:15.090Z,23.04
2022-08-18T23:55:17.951Z,23.09
2022-08-18T23:58:20.890Z,23.10
